sensor_id;sensor_type;location;lat;lon;timestamp;P1;durP1;ratioP1;P2;durP2;ratioP2
57401;SDS011;43226;51.110;6.998;2024-03-22T00:00:32;31.87;;;15.47;;
57401;SDS011;43226;51.110;6.998;2024-03-22T00:02:57;33.27;;;15.00;;
57401;SDS011;43226;51.110;6.998;2024-03-22T00:05:22;37.67;;;15.20;;
57401;SDS011;43226;51.110;6.998;2024-03-22T00:07:48;31.00;;;15.30;;
57401;SDS011;43226;51.110;6.998;2024-03-22T00:10:13;32.20;;;15.90;;
57401;SDS011;43226;51.110;6.998;2024-03-22T00:12:38;30.23;;;14.50;;
57401;SDS011;43226;51.110;6.998;2024-03-22T00:15:04;35.10;;;15.40;;
57401;SDS011;43226;51.110;6.998;2024-03-22T00:17:29;33.00;;;14.97;;
57401;SDS011;43226;51.110;6.998;2024-03-22T00:19:55;36.73;;;16.00;;
57401;SDS011;43226;51.110;6.998;2024-03-22T00:22:20;33.87;;;16.37;;
57401;SDS011;43226;51.110;6.998;2024-03-22T00:24:46;39.37;;;16.77;;
57401;SDS011;43226;51.110;6.998;2024-03-22T00:27:11;31.97;;;15.43;;
57401;SDS011;43226;51.110;6.998;2024-03-22T00:29:37;38.63;;;16.03;;
57401;SDS011;43226;51.110;6.998;2024-03-22T00:32:02;31.17;;;15.67;;
57401;SDS011;43226;51.110;6.998;2024-03-22T00:34:28;33.20;;;16.27;;
57401;SDS011;43226;51.110;6.998;2024-03-22T00:36:53;29.87;;;15.80;;
57401;SDS011;43226;51.110;6.998;2024-03-22T00:39:18;34.47;;;14.20;;
57401;SDS011;43226;51.110;6.998;2024-03-22T00:41:43;29.20;;;14.97;;
57401;SDS011;43226;51.110;6.998;2024-03-22T00:44:09;31.10;;;16.50;;
57401;SDS011;43226;51.110;6.998;2024-03-22T00:46:34;31.30;;;14.47;;
57401;SDS011;43226;51.110;6.998;2024-03-22T00:49:00;34.17;;;15.63;;
57401;SDS011;43226;51.110;6.998;2024-03-22T00:51:25;31.03;;;15.67;;
57401;SDS011;43226;51.110;6.998;2024-03-22T00:53:51;32.30;;;14.40;;
57401;SDS011;43226;51.110;6.998;2024-03-22T00:56:16;35.30;;;14.77;;
57401;SDS011;43226;51.110;6.998;2024-03-22T00:58:41;29.53;;;14.30;;
57401;SDS011;43226;51.110;6.998;2024-03-22T01:01:06;30.97;;;14.20;;
57401;SDS011;43226;51.110;6.998;2024-03-22T01:03:32;32.10;;;16.13;;
57401;SDS011;43226;51.110;6.998;2024-03-22T01:05:57;31.17;;;14.60;;
57401;SDS011;43226;51.110;6.998;2024-03-22T01:08:22;30.53;;;13.90;;
57401;SDS011;43226;51.110;6.998;2024-03-22T01:10:47;26.73;;;14.07;;
57401;SDS011;43226;51.110;6.998;2024-03-22T01:13:13;33.43;;;16.30;;
57401;SDS011;43226;51.110;6.998;2024-03-22T01:15:39;29.13;;;14.70;;
57401;SDS011;43226;51.110;6.998;2024-03-22T01:18:04;27.07;;;14.77;;
57401;SDS011;43226;51.110;6.998;2024-03-22T01:20:30;27.97;;;13.93;;
57401;SDS011;43226;51.110;6.998;2024-03-22T01:22:55;32.90;;;15.27;;
57401;SDS011;43226;51.110;6.998;2024-03-22T01:25:20;26.50;;;13.80;;
57401;SDS011;43226;51.110;6.998;2024-03-22T01:27:45;21.27;;;11.60;;
57401;SDS011;43226;51.110;6.998;2024-03-22T01:30:10;27.27;;;12.73;;
57401;SDS011;43226;51.110;6.998;2024-03-22T01:32:36;23.70;;;13.33;;
57401;SDS011;43226;51.110;6.998;2024-03-22T01:35:01;25.10;;;13.60;;
57401;SDS011;43226;51.110;6.998;2024-03-22T01:37:27;25.90;;;13.30;;
57401;SDS011;43226;51.110;6.998;2024-03-22T01:39:52;25.27;;;13.17;;
57401;SDS011;43226;51.110;6.998;2024-03-22T01:42:17;23.20;;;13.03;;
57401;SDS011;43226;51.110;6.998;2024-03-22T01:44:42;25.30;;;12.50;;
57401;SDS011;43226;51.110;6.998;2024-03-22T01:47:07;23.43;;;13.20;;
57401;SDS011;43226;51.110;6.998;2024-03-22T01:49:33;25.10;;;13.60;;
57401;SDS011;43226;51.110;6.998;2024-03-22T01:51:58;28.70;;;13.00;;
57401;SDS011;43226;51.110;6.998;2024-03-22T01:54:23;28.47;;;12.27;;
57401;SDS011;43226;51.110;6.998;2024-03-22T01:56:48;21.97;;;12.13;;
57401;SDS011;43226;51.110;6.998;2024-03-22T01:59:13;27.07;;;12.50;;
57401;SDS011;43226;51.110;6.998;2024-03-22T02:01:39;22.67;;;11.77;;
57401;SDS011;43226;51.110;6.998;2024-03-22T02:04:04;27.20;;;12.60;;
57401;SDS011;43226;51.110;6.998;2024-03-22T02:06:29;27.83;;;12.30;;
57401;SDS011;43226;51.110;6.998;2024-03-22T02:08:55;24.77;;;13.03;;
57401;SDS011;43226;51.110;6.998;2024-03-22T02:11:20;28.00;;;12.90;;
57401;SDS011;43226;51.110;6.998;2024-03-22T02:13:46;26.90;;;14.23;;
57401;SDS011;43226;51.110;6.998;2024-03-22T02:16:11;25.80;;;11.00;;
57401;SDS011;43226;51.110;6.998;2024-03-22T02:18:37;25.70;;;12.70;;
57401;SDS011;43226;51.110;6.998;2024-03-22T02:21:02;18.97;;;11.50;;
57401;SDS011;43226;51.110;6.998;2024-03-22T02:23:36;22.13;;;12.00;;
57401;SDS011;43226;51.110;6.998;2024-03-22T02:26:02;19.87;;;11.30;;
57401;SDS011;43226;51.110;6.998;2024-03-22T02:28:28;25.33;;;11.73;;
57401;SDS011;43226;51.110;6.998;2024-03-22T02:30:53;19.67;;;11.50;;
57401;SDS011;43226;51.110;6.998;2024-03-22T02:33:18;24.53;;;12.30;;
57401;SDS011;43226;51.110;6.998;2024-03-22T02:35:45;15.53;;;10.40;;
57401;SDS011;43226;51.110;6.998;2024-03-22T02:38:11;21.43;;;11.43;;
57401;SDS011;43226;51.110;6.998;2024-03-22T02:40:36;22.70;;;11.90;;
57401;SDS011;43226;51.110;6.998;2024-03-22T02:43:01;20.37;;;10.90;;
57401;SDS011;43226;51.110;6.998;2024-03-22T02:45:26;22.17;;;11.07;;
57401;SDS011;43226;51.110;6.998;2024-03-22T02:47:51;21.67;;;11.60;;
57401;SDS011;43226;51.110;6.998;2024-03-22T02:50:16;18.70;;;10.67;;
57401;SDS011;43226;51.110;6.998;2024-03-22T02:52:42;19.90;;;10.77;;
57401;SDS011;43226;51.110;6.998;2024-03-22T02:55:07;18.80;;;9.77;;
57401;SDS011;43226;51.110;6.998;2024-03-22T02:57:32;24.60;;;11.63;;
57401;SDS011;43226;51.110;6.998;2024-03-22T02:59:59;21.27;;;11.33;;
57401;SDS011;43226;51.110;6.998;2024-03-22T03:02:25;19.10;;;11.40;;
57401;SDS011;43226;51.110;6.998;2024-03-22T03:04:50;21.03;;;10.70;;
57401;SDS011;43226;51.110;6.998;2024-03-22T03:07:15;16.30;;;9.77;;
57401;SDS011;43226;51.110;6.998;2024-03-22T03:09:40;17.27;;;8.80;;
57401;SDS011;43226;51.110;6.998;2024-03-22T03:12:05;22.37;;;9.80;;
57401;SDS011;43226;51.110;6.998;2024-03-22T03:14:31;18.77;;;10.73;;
57401;SDS011;43226;51.110;6.998;2024-03-22T03:16:56;21.00;;;11.67;;
57401;SDS011;43226;51.110;6.998;2024-03-22T03:19:21;18.40;;;10.47;;
57401;SDS011;43226;51.110;6.998;2024-03-22T03:21:46;20.23;;;11.23;;
57401;SDS011;43226;51.110;6.998;2024-03-22T03:24:11;20.87;;;10.73;;
57401;SDS011;43226;51.110;6.998;2024-03-22T03:26:37;19.23;;;10.40;;
57401;SDS011;43226;51.110;6.998;2024-03-22T03:29:02;20.90;;;10.57;;
57401;SDS011;43226;51.110;6.998;2024-03-22T03:31:27;19.40;;;10.70;;
57401;SDS011;43226;51.110;6.998;2024-03-22T03:33:52;19.13;;;11.00;;
57401;SDS011;43226;51.110;6.998;2024-03-22T03:36:17;22.13;;;9.53;;
57401;SDS011;43226;51.110;6.998;2024-03-22T03:38:42;18.33;;;10.87;;
57401;SDS011;43226;51.110;6.998;2024-03-22T03:41:08;23.60;;;11.30;;
57401;SDS011;43226;51.110;6.998;2024-03-22T03:43:33;25.90;;;12.10;;
57401;SDS011;43226;51.110;6.998;2024-03-22T03:45:58;19.40;;;10.50;;
57401;SDS011;43226;51.110;6.998;2024-03-22T03:48:23;21.03;;;11.63;;
57401;SDS011;43226;51.110;6.998;2024-03-22T03:50:54;18.10;;;10.40;;
57401;SDS011;43226;51.110;6.998;2024-03-22T03:53:20;18.57;;;10.50;;
57401;SDS011;43226;51.110;6.998;2024-03-22T03:55:45;18.67;;;9.47;;
57401;SDS011;43226;51.110;6.998;2024-03-22T03:58:10;17.00;;;9.33;;
57401;SDS011;43226;51.110;6.998;2024-03-22T04:00:36;18.10;;;9.73;;
57401;SDS011;43226;51.110;6.998;2024-03-22T04:03:01;19.50;;;10.30;;
57401;SDS011;43226;51.110;6.998;2024-03-22T04:05:26;20.30;;;9.87;;
57401;SDS011;43226;51.110;6.998;2024-03-22T04:07:51;21.10;;;10.13;;
57401;SDS011;43226;51.110;6.998;2024-03-22T04:10:17;21.70;;;9.30;;
57401;SDS011;43226;51.110;6.998;2024-03-22T04:12:44;16.60;;;9.57;;
57401;SDS011;43226;51.110;6.998;2024-03-22T04:15:09;19.70;;;10.30;;
57401;SDS011;43226;51.110;6.998;2024-03-22T04:17:35;19.27;;;9.60;;
57401;SDS011;43226;51.110;6.998;2024-03-22T04:20:00;22.73;;;10.30;;
57401;SDS011;43226;51.110;6.998;2024-03-22T04:22:25;19.47;;;9.70;;
57401;SDS011;43226;51.110;6.998;2024-03-22T04:24:50;24.67;;;9.87;;
57401;SDS011;43226;51.110;6.998;2024-03-22T04:27:16;16.20;;;9.40;;
57401;SDS011;43226;51.110;6.998;2024-03-22T04:29:41;19.43;;;9.40;;
57401;SDS011;43226;51.110;6.998;2024-03-22T04:32:06;19.90;;;10.17;;
57401;SDS011;43226;51.110;6.998;2024-03-22T04:34:31;21.60;;;9.83;;
57401;SDS011;43226;51.110;6.998;2024-03-22T04:36:56;19.87;;;9.87;;
57401;SDS011;43226;51.110;6.998;2024-03-22T04:39:22;20.80;;;9.57;;
57401;SDS011;43226;51.110;6.998;2024-03-22T04:41:47;18.33;;;10.00;;
57401;SDS011;43226;51.110;6.998;2024-03-22T04:44:12;23.93;;;11.57;;
57401;SDS011;43226;51.110;6.998;2024-03-22T04:46:37;21.23;;;10.00;;
57401;SDS011;43226;51.110;6.998;2024-03-22T04:49:03;18.30;;;9.40;;
57401;SDS011;43226;51.110;6.998;2024-03-22T04:51:28;17.93;;;8.73;;
57401;SDS011;43226;51.110;6.998;2024-03-22T04:53:53;16.67;;;8.87;;
57401;SDS011;43226;51.110;6.998;2024-03-22T04:56:18;14.63;;;9.80;;
57401;SDS011;43226;51.110;6.998;2024-03-22T04:58:43;15.90;;;9.00;;
57401;SDS011;43226;51.110;6.998;2024-03-22T05:01:08;19.33;;;9.50;;
57401;SDS011;43226;51.110;6.998;2024-03-22T05:03:34;14.70;;;8.53;;
57401;SDS011;43226;51.110;6.998;2024-03-22T05:05:59;19.10;;;9.90;;
57401;SDS011;43226;51.110;6.998;2024-03-22T05:08:28;16.60;;;9.57;;
57401;SDS011;43226;51.110;6.998;2024-03-22T05:10:53;16.73;;;9.20;;
57401;SDS011;43226;51.110;6.998;2024-03-22T05:13:18;23.33;;;9.53;;
57401;SDS011;43226;51.110;6.998;2024-03-22T05:15:44;17.53;;;9.90;;
57401;SDS011;43226;51.110;6.998;2024-03-22T05:18:09;16.80;;;8.80;;
57401;SDS011;43226;51.110;6.998;2024-03-22T05:20:34;17.37;;;8.97;;
57401;SDS011;43226;51.110;6.998;2024-03-22T05:23:00;19.50;;;9.73;;
57401;SDS011;43226;51.110;6.998;2024-03-22T05:25:25;19.33;;;10.53;;
57401;SDS011;43226;51.110;6.998;2024-03-22T05:27:51;16.00;;;9.30;;
57401;SDS011;43226;51.110;6.998;2024-03-22T05:30:17;23.93;;;11.03;;
57401;SDS011;43226;51.110;6.998;2024-03-22T05:32:42;16.07;;;9.67;;
57401;SDS011;43226;51.110;6.998;2024-03-22T05:35:08;20.17;;;9.17;;
57401;SDS011;43226;51.110;6.998;2024-03-22T05:37:33;17.50;;;8.93;;
57401;SDS011;43226;51.110;6.998;2024-03-22T05:40:01;16.80;;;9.50;;
57401;SDS011;43226;51.110;6.998;2024-03-22T05:42:27;16.47;;;9.83;;
57401;SDS011;43226;51.110;6.998;2024-03-22T05:44:53;17.20;;;9.50;;
57401;SDS011;43226;51.110;6.998;2024-03-22T05:47:20;22.20;;;10.00;;
57401;SDS011;43226;51.110;6.998;2024-03-22T05:49:46;19.03;;;9.50;;
57401;SDS011;43226;51.110;6.998;2024-03-22T05:52:11;18.80;;;9.40;;
57401;SDS011;43226;51.110;6.998;2024-03-22T05:54:37;22.10;;;10.40;;
57401;SDS011;43226;51.110;6.998;2024-03-22T05:57:02;16.47;;;9.33;;
57401;SDS011;43226;51.110;6.998;2024-03-22T05:59:28;14.97;;;8.90;;
57401;SDS011;43226;51.110;6.998;2024-03-22T06:01:53;16.90;;;9.20;;
57401;SDS011;43226;51.110;6.998;2024-03-22T06:04:18;16.80;;;9.37;;
57401;SDS011;43226;51.110;6.998;2024-03-22T06:06:43;21.23;;;10.10;;
57401;SDS011;43226;51.110;6.998;2024-03-22T06:09:10;18.00;;;10.40;;
57401;SDS011;43226;51.110;6.998;2024-03-22T06:11:36;18.87;;;10.17;;
57401;SDS011;43226;51.110;6.998;2024-03-22T06:14:01;17.13;;;9.17;;
57401;SDS011;43226;51.110;6.998;2024-03-22T06:16:26;19.60;;;10.57;;
57401;SDS011;43226;51.110;6.998;2024-03-22T06:18:52;18.70;;;10.03;;
57401;SDS011;43226;51.110;6.998;2024-03-22T06:21:17;18.37;;;9.90;;
57401;SDS011;43226;51.110;6.998;2024-03-22T06:23:49;17.93;;;9.00;;
57401;SDS011;43226;51.110;6.998;2024-03-22T06:26:14;16.00;;;9.47;;
57401;SDS011;43226;51.110;6.998;2024-03-22T06:28:39;14.80;;;9.90;;
57401;SDS011;43226;51.110;6.998;2024-03-22T06:31:04;18.40;;;10.80;;
57401;SDS011;43226;51.110;6.998;2024-03-22T06:33:29;14.97;;;9.60;;
57401;SDS011;43226;51.110;6.998;2024-03-22T06:35:55;22.27;;;11.07;;
57401;SDS011;43226;51.110;6.998;2024-03-22T06:38:20;19.93;;;10.60;;
57401;SDS011;43226;51.110;6.998;2024-03-22T06:40:45;19.23;;;10.43;;
57401;SDS011;43226;51.110;6.998;2024-03-22T06:43:10;20.90;;;11.17;;
57401;SDS011;43226;51.110;6.998;2024-03-22T06:45:35;17.77;;;9.90;;
57401;SDS011;43226;51.110;6.998;2024-03-22T06:48:03;20.47;;;10.10;;
57401;SDS011;43226;51.110;6.998;2024-03-22T06:50:29;25.37;;;11.00;;
57401;SDS011;43226;51.110;6.998;2024-03-22T06:52:54;19.97;;;9.60;;
57401;SDS011;43226;51.110;6.998;2024-03-22T06:55:20;15.27;;;10.27;;
57401;SDS011;43226;51.110;6.998;2024-03-22T06:57:48;19.50;;;10.20;;
57401;SDS011;43226;51.110;6.998;2024-03-22T07:00:14;18.77;;;9.37;;
57401;SDS011;43226;51.110;6.998;2024-03-22T07:02:39;21.70;;;10.90;;
57401;SDS011;43226;51.110;6.998;2024-03-22T07:05:05;20.30;;;10.20;;
57401;SDS011;43226;51.110;6.998;2024-03-22T07:07:30;16.30;;;10.40;;
57401;SDS011;43226;51.110;6.998;2024-03-22T07:09:56;19.33;;;11.43;;
57401;SDS011;43226;51.110;6.998;2024-03-22T07:12:21;16.40;;;9.67;;
57401;SDS011;43226;51.110;6.998;2024-03-22T07:14:47;17.60;;;10.40;;
57401;SDS011;43226;51.110;6.998;2024-03-22T07:17:12;22.93;;;11.07;;
57401;SDS011;43226;51.110;6.998;2024-03-22T07:19:37;22.87;;;10.97;;
57401;SDS011;43226;51.110;6.998;2024-03-22T07:22:03;19.53;;;10.40;;
57401;SDS011;43226;51.110;6.998;2024-03-22T07:24:28;15.83;;;9.80;;
57401;SDS011;43226;51.110;6.998;2024-03-22T07:26:53;22.77;;;10.40;;
57401;SDS011;43226;51.110;6.998;2024-03-22T07:29:18;28.77;;;11.60;;
57401;SDS011;43226;51.110;6.998;2024-03-22T07:31:44;16.83;;;9.80;;
57401;SDS011;43226;51.110;6.998;2024-03-22T07:34:09;20.53;;;10.97;;
57401;SDS011;43226;51.110;6.998;2024-03-22T07:36:38;17.80;;;10.57;;
57401;SDS011;43226;51.110;6.998;2024-03-22T07:39:03;21.90;;;10.70;;
57401;SDS011;43226;51.110;6.998;2024-03-22T07:41:31;17.50;;;10.53;;
57401;SDS011;43226;51.110;6.998;2024-03-22T07:43:57;20.93;;;11.13;;
57401;SDS011;43226;51.110;6.998;2024-03-22T07:46:22;19.17;;;10.73;;
57401;SDS011;43226;51.110;6.998;2024-03-22T07:48:48;21.90;;;11.20;;
57401;SDS011;43226;51.110;6.998;2024-03-22T07:51:13;15.53;;;10.70;;
57401;SDS011;43226;51.110;6.998;2024-03-22T07:53:39;18.77;;;11.73;;
57401;SDS011;43226;51.110;6.998;2024-03-22T07:56:04;20.80;;;12.03;;
57401;SDS011;43226;51.110;6.998;2024-03-22T07:58:29;19.53;;;11.40;;
57401;SDS011;43226;51.110;6.998;2024-03-22T08:00:55;19.60;;;10.60;;
57401;SDS011;43226;51.110;6.998;2024-03-22T08:03:20;20.30;;;10.40;;
57401;SDS011;43226;51.110;6.998;2024-03-22T08:05:45;18.23;;;12.00;;
57401;SDS011;43226;51.110;6.998;2024-03-22T08:08:10;24.43;;;12.03;;
57401;SDS011;43226;51.110;6.998;2024-03-22T08:10:35;21.60;;;12.93;;
57401;SDS011;43226;51.110;6.998;2024-03-22T08:13:01;22.90;;;11.43;;
57401;SDS011;43226;51.110;6.998;2024-03-22T08:15:26;21.23;;;12.90;;
57401;SDS011;43226;51.110;6.998;2024-03-22T08:17:51;32.50;;;13.03;;
57401;SDS011;43226;51.110;6.998;2024-03-22T08:20:17;21.30;;;12.07;;
57401;SDS011;43226;51.110;6.998;2024-03-22T08:22:42;15.77;;;10.80;;
57401;SDS011;43226;51.110;6.998;2024-03-22T08:25:07;16.30;;;9.90;;
57401;SDS011;43226;51.110;6.998;2024-03-22T08:27:33;19.40;;;11.77;;
57401;SDS011;43226;51.110;6.998;2024-03-22T08:29:58;18.00;;;11.20;;
57401;SDS011;43226;51.110;6.998;2024-03-22T08:32:24;19.10;;;10.37;;
57401;SDS011;43226;51.110;6.998;2024-03-22T08:34:49;18.20;;;9.67;;
57401;SDS011;43226;51.110;6.998;2024-03-22T08:37:14;18.63;;;10.40;;
57401;SDS011;43226;51.110;6.998;2024-03-22T08:39:39;13.90;;;9.47;;
57401;SDS011;43226;51.110;6.998;2024-03-22T08:42:04;20.23;;;10.20;;
57401;SDS011;43226;51.110;6.998;2024-03-22T08:44:30;17.47;;;9.70;;
57401;SDS011;43226;51.110;6.998;2024-03-22T08:46:56;23.50;;;10.77;;
57401;SDS011;43226;51.110;6.998;2024-03-22T08:49:21;14.23;;;8.43;;
57401;SDS011;43226;51.110;6.998;2024-03-22T08:51:46;12.00;;;7.67;;
57401;SDS011;43226;51.110;6.998;2024-03-22T08:54:13;15.00;;;8.87;;
57401;SDS011;43226;51.110;6.998;2024-03-22T08:56:38;16.50;;;10.23;;
57401;SDS011;43226;51.110;6.998;2024-03-22T08:59:03;16.33;;;9.13;;
57401;SDS011;43226;51.110;6.998;2024-03-22T09:01:28;14.13;;;8.73;;
57401;SDS011;43226;51.110;6.998;2024-03-22T09:03:53;14.57;;;9.37;;
57401;SDS011;43226;51.110;6.998;2024-03-22T09:06:19;11.93;;;7.90;;
57401;SDS011;43226;51.110;6.998;2024-03-22T09:08:44;15.70;;;9.40;;
57401;SDS011;43226;51.110;6.998;2024-03-22T09:11:11;15.37;;;9.03;;
57401;SDS011;43226;51.110;6.998;2024-03-22T09:13:36;18.47;;;9.97;;
57401;SDS011;43226;51.110;6.998;2024-03-22T09:16:01;21.47;;;9.53;;
57401;SDS011;43226;51.110;6.998;2024-03-22T09:18:27;12.43;;;8.23;;
57401;SDS011;43226;51.110;6.998;2024-03-22T09:20:53;15.73;;;10.00;;
57401;SDS011;43226;51.110;6.998;2024-03-22T09:23:18;12.80;;;8.50;;
57401;SDS011;43226;51.110;6.998;2024-03-22T09:25:43;14.03;;;8.10;;
57401;SDS011;43226;51.110;6.998;2024-03-22T09:28:08;14.80;;;9.40;;
57401;SDS011;43226;51.110;6.998;2024-03-22T09:30:37;18.80;;;8.77;;
57401;SDS011;43226;51.110;6.998;2024-03-22T09:33:02;16.80;;;9.57;;
57401;SDS011;43226;51.110;6.998;2024-03-22T09:35:28;16.33;;;10.00;;
57401;SDS011;43226;51.110;6.998;2024-03-22T09:37:53;13.37;;;9.00;;
57401;SDS011;43226;51.110;6.998;2024-03-22T09:40:19;14.13;;;9.27;;
57401;SDS011;43226;51.110;6.998;2024-03-22T09:42:44;16.37;;;8.07;;
57401;SDS011;43226;51.110;6.998;2024-03-22T09:45:11;16.60;;;10.00;;
57401;SDS011;43226;51.110;6.998;2024-03-22T09:47:36;15.63;;;9.60;;
57401;SDS011;43226;51.110;6.998;2024-03-22T09:50:03;16.93;;;10.00;;
57401;SDS011;43226;51.110;6.998;2024-03-22T09:52:28;14.60;;;8.33;;
57401;SDS011;43226;51.110;6.998;2024-03-22T09:54:55;16.50;;;9.23;;
57401;SDS011;43226;51.110;6.998;2024-03-22T09:57:20;11.63;;;8.10;;
57401;SDS011;43226;51.110;6.998;2024-03-22T09:59:46;14.30;;;8.50;;
57401;SDS011;43226;51.110;6.998;2024-03-22T10:02:12;26.07;;;9.10;;
57401;SDS011;43226;51.110;6.998;2024-03-22T10:04:40;14.87;;;9.50;;
57401;SDS011;43226;51.110;6.998;2024-03-22T10:07:05;15.37;;;9.40;;
57401;SDS011;43226;51.110;6.998;2024-03-22T10:09:31;11.60;;;8.80;;
57401;SDS011;43226;51.110;6.998;2024-03-22T10:11:57;12.60;;;7.93;;
57401;SDS011;43226;51.110;6.998;2024-03-22T10:14:25;13.40;;;8.93;;
57401;SDS011;43226;51.110;6.998;2024-03-22T10:16:51;12.47;;;8.30;;
57401;SDS011;43226;51.110;6.998;2024-03-22T10:19:20;18.50;;;9.50;;
57401;SDS011;43226;51.110;6.998;2024-03-22T10:21:47;15.60;;;8.90;;
57401;SDS011;43226;51.110;6.998;2024-03-22T10:24:13;25.17;;;9.13;;
57401;SDS011;43226;51.110;6.998;2024-03-22T10:26:39;20.70;;;9.50;;
57401;SDS011;43226;51.110;6.998;2024-03-22T10:29:07;15.60;;;10.00;;
57401;SDS011;43226;51.110;6.998;2024-03-22T10:31:35;16.40;;;8.80;;
57401;SDS011;43226;51.110;6.998;2024-03-22T10:34:02;17.83;;;8.40;;
57401;SDS011;43226;51.110;6.998;2024-03-22T10:36:31;14.23;;;9.17;;
57401;SDS011;43226;51.110;6.998;2024-03-22T10:39:01;19.63;;;10.17;;
57401;SDS011;43226;51.110;6.998;2024-03-22T10:41:29;16.40;;;9.60;;
57401;SDS011;43226;51.110;6.998;2024-03-22T10:43:54;13.70;;;9.27;;
57401;SDS011;43226;51.110;6.998;2024-03-22T10:46:20;13.20;;;9.30;;
57401;SDS011;43226;51.110;6.998;2024-03-22T10:48:47;15.60;;;9.23;;
57401;SDS011;43226;51.110;6.998;2024-03-22T10:51:23;14.03;;;8.80;;
57401;SDS011;43226;51.110;6.998;2024-03-22T10:53:51;17.93;;;9.07;;
57401;SDS011;43226;51.110;6.998;2024-03-22T10:56:19;18.33;;;9.30;;
57401;SDS011;43226;51.110;6.998;2024-03-22T10:58:46;17.87;;;10.07;;
57401;SDS011;43226;51.110;6.998;2024-03-22T11:01:22;16.27;;;10.03;;
57401;SDS011;43226;51.110;6.998;2024-03-22T11:03:48;15.47;;;10.57;;
57401;SDS011;43226;51.110;6.998;2024-03-22T11:06:20;16.47;;;10.13;;
57401;SDS011;43226;51.110;6.998;2024-03-22T11:08:51;18.70;;;10.57;;
57401;SDS011;43226;51.110;6.998;2024-03-22T11:11:20;19.23;;;10.07;;
57401;SDS011;43226;51.110;6.998;2024-03-22T11:13:48;15.13;;;10.47;;
57401;SDS011;43226;51.110;6.998;2024-03-22T11:16:14;15.20;;;10.10;;
57401;SDS011;43226;51.110;6.998;2024-03-22T11:18:40;21.83;;;10.00;;
57401;SDS011;43226;51.110;6.998;2024-03-22T11:21:06;20.83;;;9.83;;
57401;SDS011;43226;51.110;6.998;2024-03-22T11:23:37;14.03;;;9.77;;
57401;SDS011;43226;51.110;6.998;2024-03-22T11:26:02;18.73;;;10.37;;
57401;SDS011;43226;51.110;6.998;2024-03-22T11:28:28;18.43;;;10.77;;
57401;SDS011;43226;51.110;6.998;2024-03-22T11:30:53;15.87;;;9.90;;
57401;SDS011;43226;51.110;6.998;2024-03-22T11:33:19;14.67;;;9.07;;
57401;SDS011;43226;51.110;6.998;2024-03-22T11:35:44;15.33;;;10.33;;
57401;SDS011;43226;51.110;6.998;2024-03-22T11:38:09;22.00;;;11.10;;
57401;SDS011;43226;51.110;6.998;2024-03-22T11:40:34;16.50;;;9.97;;
57401;SDS011;43226;51.110;6.998;2024-03-22T11:43:00;26.13;;;12.17;;
57401;SDS011;43226;51.110;6.998;2024-03-22T11:45:27;16.60;;;10.27;;
57401;SDS011;43226;51.110;6.998;2024-03-22T11:47:54;19.97;;;10.97;;
57401;SDS011;43226;51.110;6.998;2024-03-22T11:50:19;25.67;;;11.60;;
57401;SDS011;43226;51.110;6.998;2024-03-22T11:52:45;17.73;;;10.90;;
57401;SDS011;43226;51.110;6.998;2024-03-22T11:55:14;21.17;;;9.80;;
57401;SDS011;43226;51.110;6.998;2024-03-22T12:44:54;32.13;;;11.60;;
57401;SDS011;43226;51.110;6.998;2024-03-22T12:47:19;24.50;;;11.33;;
57401;SDS011;43226;51.110;6.998;2024-03-22T12:49:44;17.27;;;11.70;;
57401;SDS011;43226;51.110;6.998;2024-03-22T12:52:09;16.40;;;11.07;;
57401;SDS011;43226;51.110;6.998;2024-03-22T12:54:35;17.70;;;11.47;;
57401;SDS011;43226;51.110;6.998;2024-03-22T12:57:00;18.93;;;10.77;;
57401;SDS011;43226;51.110;6.998;2024-03-22T12:59:25;17.90;;;11.57;;
57401;SDS011;43226;51.110;6.998;2024-03-22T13:01:51;18.70;;;10.93;;
57401;SDS011;43226;51.110;6.998;2024-03-22T13:04:18;16.47;;;10.63;;
57401;SDS011;43226;51.110;6.998;2024-03-22T13:06:43;19.83;;;11.17;;
57401;SDS011;43226;51.110;6.998;2024-03-22T13:09:08;18.93;;;10.03;;
57401;SDS011;43226;51.110;6.998;2024-03-22T13:11:34;17.77;;;11.17;;
57401;SDS011;43226;51.110;6.998;2024-03-22T13:13:59;18.27;;;11.00;;
57401;SDS011;43226;51.110;6.998;2024-03-22T13:16:26;19.07;;;11.47;;
57401;SDS011;43226;51.110;6.998;2024-03-22T13:18:51;17.93;;;10.80;;
57401;SDS011;43226;51.110;6.998;2024-03-22T13:21:17;19.70;;;12.83;;
57401;SDS011;43226;51.110;6.998;2024-03-22T13:23:42;18.97;;;12.63;;
57401;SDS011;43226;51.110;6.998;2024-03-22T13:26:07;16.30;;;11.10;;
57401;SDS011;43226;51.110;6.998;2024-03-22T13:28:32;21.80;;;12.10;;
57401;SDS011;43226;51.110;6.998;2024-03-22T13:30:59;17.57;;;10.10;;
57401;SDS011;43226;51.110;6.998;2024-03-22T13:33:24;18.57;;;10.90;;
57401;SDS011;43226;51.110;6.998;2024-03-22T13:35:50;18.73;;;11.23;;
57401;SDS011;43226;51.110;6.998;2024-03-22T13:38:15;17.70;;;10.80;;
57401;SDS011;43226;51.110;6.998;2024-03-22T13:40:41;15.50;;;10.57;;
57401;SDS011;43226;51.110;6.998;2024-03-22T13:43:06;16.17;;;9.77;;
57401;SDS011;43226;51.110;6.998;2024-03-22T13:45:32;17.00;;;10.03;;
57401;SDS011;43226;51.110;6.998;2024-03-22T13:47:57;19.23;;;10.20;;
57401;SDS011;43226;51.110;6.998;2024-03-22T13:50:23;18.63;;;10.67;;
57401;SDS011;43226;51.110;6.998;2024-03-22T13:52:48;15.67;;;10.47;;
57401;SDS011;43226;51.110;6.998;2024-03-22T13:55:13;14.97;;;10.00;;
57401;SDS011;43226;51.110;6.998;2024-03-22T13:57:38;16.23;;;10.30;;
57401;SDS011;43226;51.110;6.998;2024-03-22T14:00:04;14.93;;;9.57;;
57401;SDS011;43226;51.110;6.998;2024-03-22T14:02:32;14.70;;;9.20;;
57401;SDS011;43226;51.110;6.998;2024-03-22T14:04:57;13.70;;;8.50;;
57401;SDS011;43226;51.110;6.998;2024-03-22T14:07:22;13.17;;;9.63;;
57401;SDS011;43226;51.110;6.998;2024-03-22T14:09:47;15.77;;;9.77;;
57401;SDS011;43226;51.110;6.998;2024-03-22T14:12:12;17.20;;;9.63;;
57401;SDS011;43226;51.110;6.998;2024-03-22T14:14:38;16.77;;;10.40;;
57401;SDS011;43226;51.110;6.998;2024-03-22T14:17:03;12.63;;;8.47;;
57401;SDS011;43226;51.110;6.998;2024-03-22T14:19:28;18.73;;;9.87;;
57401;SDS011;43226;51.110;6.998;2024-03-22T14:21:54;14.20;;;8.80;;
57401;SDS011;43226;51.110;6.998;2024-03-22T14:24:19;16.87;;;9.77;;
57401;SDS011;43226;51.110;6.998;2024-03-22T14:26:44;16.50;;;9.60;;
57401;SDS011;43226;51.110;6.998;2024-03-22T14:29:10;13.70;;;9.10;;
57401;SDS011;43226;51.110;6.998;2024-03-22T14:31:35;14.10;;;8.53;;
57401;SDS011;43226;51.110;6.998;2024-03-22T14:34:00;17.47;;;9.13;;
57401;SDS011;43226;51.110;6.998;2024-03-22T14:36:26;11.63;;;8.27;;
57401;SDS011;43226;51.110;6.998;2024-03-22T14:38:51;18.40;;;10.30;;
57401;SDS011;43226;51.110;6.998;2024-03-22T14:41:16;17.10;;;9.73;;
57401;SDS011;43226;51.110;6.998;2024-03-22T14:43:41;13.57;;;8.90;;
57401;SDS011;43226;51.110;6.998;2024-03-22T14:46:07;13.73;;;8.90;;
57401;SDS011;43226;51.110;6.998;2024-03-22T14:48:32;12.60;;;9.23;;
57401;SDS011;43226;51.110;6.998;2024-03-22T14:50:57;12.33;;;8.50;;
57401;SDS011;43226;51.110;6.998;2024-03-22T14:53:23;17.40;;;9.43;;
57401;SDS011;43226;51.110;6.998;2024-03-22T14:56:06;13.10;;;8.57;;
57401;SDS011;43226;51.110;6.998;2024-03-22T14:58:33;13.70;;;9.53;;
57401;SDS011;43226;51.110;6.998;2024-03-22T15:01:03;16.67;;;9.23;;
57401;SDS011;43226;51.110;6.998;2024-03-22T15:03:28;16.40;;;9.07;;